sensor_id;sensor_type;location;lat;lon;timestamp;P1;P2;P0
61804;PMS7003;47725;47.912;7.356;2023-04-25T00:03:15;1.95;0.97;
61804;PMS7003;47725;47.912;7.356;2023-04-25T00:07:15;0.00;0.00;
61804;PMS7003;47725;47.912;7.356;2023-04-25T00:11:15;0.00;0.00;
61804;PMS7003;47725;47.912;7.356;2023-04-25T00:15:15;0.00;0.00;
61804;PMS7003;47725;47.912;7.356;2023-04-25T00:19:15;0.97;0.97;
61804;PMS7003;47725;47.912;7.356;2023-04-25T00:23:15;0.97;0.97;
61804;PMS7003;47725;47.912;7.356;2023-04-25T00:27:15;0.97;0.97;
61804;PMS7003;47725;47.912;7.356;2023-04-25T00:31:15;0.97;0.97;
61804;PMS7003;47725;47.912;7.356;2023-04-25T00:35:15;0.97;0.97;
61804;PMS7003;47725;47.912;7.356;2023-04-25T00:39:15;1.91;1.91;
61804;PMS7003;47725;47.912;7.356;2023-04-25T00:43:15;1.91;1.91;
61804;PMS7003;47725;47.912;7.356;2023-04-25T00:47:15;1.92;0.96;
61804;PMS7003;47725;47.912;7.356;2023-04-25T00:51:16;1.92;0.96;
61804;PMS7003;47725;47.912;7.356;2023-04-25T00:55:15;1.92;0.96;
61804;PMS7003;47725;47.912;7.356;2023-04-25T00:59:15;0.96;0.96;
61804;PMS7003;47725;47.912;7.356;2023-04-25T01:03:15;0.96;0.96;
61804;PMS7003;47725;47.912;7.356;2023-04-25T01:07:15;1.93;1.93;
61804;PMS7003;47725;47.912;7.356;2023-04-25T01:11:15;1.93;1.93;
61804;PMS7003;47725;47.912;7.356;2023-04-25T01:15:15;1.93;1.93;
61804;PMS7003;47725;47.912;7.356;2023-04-25T01:19:16;1.92;1.92;
61804;PMS7003;47725;47.912;7.356;2023-04-25T01:23:15;1.92;1.92;
61804;PMS7003;47725;47.912;7.356;2023-04-25T01:27:15;1.90;1.90;
61804;PMS7003;47725;47.912;7.356;2023-04-25T01:31:15;1.90;1.90;
61804;PMS7003;47725;47.912;7.356;2023-04-25T01:35:15;1.90;1.90;
61804;PMS7003;47725;47.912;7.356;2023-04-25T01:39:15;1.91;1.91;
61804;PMS7003;47725;47.912;7.356;2023-04-25T01:43:15;1.91;1.91;
61804;PMS7003;47725;47.912;7.356;2023-04-25T01:47:15;2.84;1.90;
61804;PMS7003;47725;47.912;7.356;2023-04-25T01:51:15;2.84;1.90;
61804;PMS7003;47725;47.912;7.356;2023-04-25T01:55:15;2.84;1.90;
61804;PMS7003;47725;47.912;7.356;2023-04-25T01:59:15;3.74;3.74;
61804;PMS7003;47725;47.912;7.356;2023-04-25T02:03:15;3.74;3.74;
61804;PMS7003;47725;47.912;7.356;2023-04-25T02:07:15;5.55;3.70;
61804;PMS7003;47725;47.912;7.356;2023-04-25T02:11:15;5.55;3.70;
61804;PMS7003;47725;47.912;7.356;2023-04-25T02:15:15;5.55;3.70;
61804;PMS7003;47725;47.912;7.356;2023-04-25T02:19:15;2.79;1.86;
61804;PMS7003;47725;47.912;7.356;2023-04-25T02:23:15;2.79;1.86;
61804;PMS7003;47725;47.912;7.356;2023-04-25T02:27:15;6.56;3.75;
61804;PMS7003;47725;47.912;7.356;2023-04-25T02:31:15;6.56;3.75;
61804;PMS7003;47725;47.912;7.356;2023-04-25T02:35:15;6.56;3.75;
61804;PMS7003;47725;47.912;7.356;2023-04-25T02:39:15;1.88;1.88;
61804;PMS7003;47725;47.912;7.356;2023-04-25T02:43:15;1.88;1.88;
61804;PMS7003;47725;47.912;7.356;2023-04-25T02:47:15;1.88;1.88;
61804;PMS7003;47725;47.912;7.356;2023-04-25T02:51:15;1.88;1.88;
61804;PMS7003;47725;47.912;7.356;2023-04-25T02:55:15;1.88;1.88;
61804;PMS7003;47725;47.912;7.356;2023-04-25T02:59:15;1.88;1.88;
61804;PMS7003;47725;47.912;7.356;2023-04-25T03:03:15;1.88;1.88;
61804;PMS7003;47725;47.912;7.356;2023-04-25T03:07:15;3.76;1.88;
61804;PMS7003;47725;47.912;7.356;2023-04-25T03:11:15;3.76;1.88;
61804;PMS7003;47725;47.912;7.356;2023-04-25T03:15:15;3.76;1.88;
61804;PMS7003;47725;47.912;7.356;2023-04-25T03:19:15;2.83;2.83;
61804;PMS7003;47725;47.912;7.356;2023-04-25T03:23:15;2.83;2.83;
61804;PMS7003;47725;47.912;7.356;2023-04-25T03:27:15;3.76;3.76;
61804;PMS7003;47725;47.912;7.356;2023-04-25T03:31:15;3.76;3.76;
61804;PMS7003;47725;47.912;7.356;2023-04-25T03:35:15;3.76;3.76;
61804;PMS7003;47725;47.912;7.356;2023-04-25T03:39:15;3.74;1.87;
61804;PMS7003;47725;47.912;7.356;2023-04-25T03:43:15;3.74;1.87;
61804;PMS7003;47725;47.912;7.356;2023-04-25T03:47:15;5.61;3.74;
61804;PMS7003;47725;47.912;7.356;2023-04-25T03:51:15;5.61;3.74;
61804;PMS7003;47725;47.912;7.356;2023-04-25T03:55:15;5.61;3.74;
61804;PMS7003;47725;47.912;7.356;2023-04-25T03:59:15;2.80;2.80;
61804;PMS7003;47725;47.912;7.356;2023-04-25T04:03:15;2.80;2.80;
61804;PMS7003;47725;47.912;7.356;2023-04-25T04:07:15;2.80;2.80;
61804;PMS7003;47725;47.912;7.356;2023-04-25T04:11:15;2.80;2.80;
61804;PMS7003;47725;47.912;7.356;2023-04-25T04:15:15;2.80;2.80;
61804;PMS7003;47725;47.912;7.356;2023-04-25T04:19:15;2.80;2.80;
61804;PMS7003;47725;47.912;7.356;2023-04-25T04:23:15;2.80;2.80;
61804;PMS7003;47725;47.912;7.356;2023-04-25T04:27:15;4.63;3.71;
61804;PMS7003;47725;47.912;7.356;2023-04-25T04:31:15;4.63;3.71;
61804;PMS7003;47725;47.912;7.356;2023-04-25T04:35:15;4.63;3.71;
61804;PMS7003;47725;47.912;7.356;2023-04-25T04:39:15;3.61;3.61;
61804;PMS7003;47725;47.912;7.356;2023-04-25T04:43:15;3.61;3.61;
61804;PMS7003;47725;47.912;7.356;2023-04-25T04:47:15;2.68;2.68;
61804;PMS7003;47725;47.912;7.356;2023-04-25T04:51:15;2.68;2.68;
61804;PMS7003;47725;47.912;7.356;2023-04-25T04:55:15;2.68;2.68;
61804;PMS7003;47725;47.912;7.356;2023-04-25T04:59:15;4.28;4.28;
61804;PMS7003;47725;47.912;7.356;2023-04-25T05:03:15;4.28;4.28;
61804;PMS7003;47725;47.912;7.356;2023-04-25T05:07:15;1.69;1.69;
61804;PMS7003;47725;47.912;7.356;2023-04-25T05:11:15;1.69;1.69;
61804;PMS7003;47725;47.912;7.356;2023-04-25T05:15:15;1.69;1.69;
61804;PMS7003;47725;47.912;7.356;2023-04-25T05:19:15;0.00;0.00;
61804;PMS7003;47725;47.912;7.356;2023-04-25T05:23:15;0.00;0.00;
61804;PMS7003;47725;47.912;7.356;2023-04-25T05:27:16;0.84;0.84;
61804;PMS7003;47725;47.912;7.356;2023-04-25T05:31:15;0.84;0.84;
61804;PMS7003;47725;47.912;7.356;2023-04-25T05:35:15;0.84;0.84;
61804;PMS7003;47725;47.912;7.356;2023-04-25T05:39:15;0.00;0.00;
61804;PMS7003;47725;47.912;7.356;2023-04-25T05:43:15;0.00;0.00;
61804;PMS7003;47725;47.912;7.356;2023-04-25T05:47:15;1.69;0.00;
61804;PMS7003;47725;47.912;7.356;2023-04-25T05:51:15;1.69;0.00;
61804;PMS7003;47725;47.912;7.356;2023-04-25T05:55:15;1.69;0.00;
61804;PMS7003;47725;47.912;7.356;2023-04-25T05:59:15;0.85;0.00;
61804;PMS7003;47725;47.912;7.356;2023-04-25T06:03:15;0.85;0.00;
61804;PMS7003;47725;47.912;7.356;2023-04-25T06:07:15;0.00;0.00;
61804;PMS7003;47725;47.912;7.356;2023-04-25T06:11:15;0.00;0.00;
61804;PMS7003;47725;47.912;7.356;2023-04-25T06:15:15;0.00;0.00;
61804;PMS7003;47725;47.912;7.356;2023-04-25T06:19:15;0.00;0.00;
61804;PMS7003;47725;47.912;7.356;2023-04-25T06:23:15;0.00;0.00;
61804;PMS7003;47725;47.912;7.356;2023-04-25T06:27:15;0.00;0.00;
61804;PMS7003;47725;47.912;7.356;2023-04-25T06:31:15;0.00;0.00;
61804;PMS7003;47725;47.912;7.356;2023-04-25T06:35:15;0.00;0.00;
61804;PMS7003;47725;47.912;7.356;2023-04-25T06:39:15;0.00;0.00;
61804;PMS7003;47725;47.912;7.356;2023-04-25T06:43:15;0.00;0.00;
61804;PMS7003;47725;47.912;7.356;2023-04-25T06:47:15;0.00;0.00;
61804;PMS7003;47725;47.912;7.356;2023-04-25T06:51:15;0.00;0.00;
61804;PMS7003;47725;47.912;7.356;2023-04-25T06:55:15;0.00;0.00;
61804;PMS7003;47725;47.912;7.356;2023-04-25T06:59:15;0.00;0.00;
61804;PMS7003;47725;47.912;7.356;2023-04-25T07:03:15;0.00;0.00;
61804;PMS7003;47725;47.912;7.356;2023-04-25T07:07:15;0.00;0.00;
61804;PMS7003;47725;47.912;7.356;2023-04-25T07:11:14;0.00;0.00;
61804;PMS7003;47725;47.912;7.356;2023-04-25T07:15:15;0.00;0.00;
61804;PMS7003;47725;47.912;7.356;2023-04-25T07:19:14;0.00;0.00;
61804;PMS7003;47725;47.912;7.356;2023-04-25T07:23:14;0.00;0.00;
61804;PMS7003;47725;47.912;7.356;2023-04-25T07:27:14;0.00;0.00;
61804;PMS7003;47725;47.912;7.356;2023-04-25T07:31:14;0.00;0.00;
61804;PMS7003;47725;47.912;7.356;2023-04-25T07:35:15;0.00;0.00;
61804;PMS7003;47725;47.912;7.356;2023-04-25T07:39:14;0.00;0.00;
61804;PMS7003;47725;47.912;7.356;2023-04-25T07:43:14;0.00;0.00;
61804;PMS7003;47725;47.912;7.356;2023-04-25T07:47:14;0.00;0.00;
61804;PMS7003;47725;47.912;7.356;2023-04-25T07:51:14;0.00;0.00;
61804;PMS7003;47725;47.912;7.356;2023-04-25T07:55:15;0.00;0.00;
61804;PMS7003;47725;47.912;7.356;2023-04-25T07:59:14;0.00;0.00;
61804;PMS7003;47725;47.912;7.356;2023-04-25T08:03:14;0.00;0.00;
61804;PMS7003;47725;47.912;7.356;2023-04-25T08:07:14;0.00;0.00;
61804;PMS7003;47725;47.912;7.356;2023-04-25T08:11:14;0.00;0.00;
61804;PMS7003;47725;47.912;7.356;2023-04-25T08:15:14;0.00;0.00;
61804;PMS7003;47725;47.912;7.356;2023-04-25T08:19:14;0.00;0.00;
61804;PMS7003;47725;47.912;7.356;2023-04-25T08:23:14;0.00;0.00;
61804;PMS7003;47725;47.912;7.356;2023-04-25T08:27:14;0.00;0.00;
61804;PMS7003;47725;47.912;7.356;2023-04-25T08:31:14;0.00;0.00;
61804;PMS7003;47725;47.912;7.356;2023-04-25T08:35:15;0.00;0.00;
61804;PMS7003;47725;47.912;7.356;2023-04-25T08:39:14;0.00;0.00;
61804;PMS7003;47725;47.912;7.356;2023-04-25T08:43:14;0.00;0.00;
61804;PMS7003;47725;47.912;7.356;2023-04-25T08:47:14;0.00;0.00;
61804;PMS7003;47725;47.912;7.356;2023-04-25T08:51:17;0.00;0.00;
61804;PMS7003;47725;47.912;7.356;2023-04-25T08:55:14;0.00;0.00;
61804;PMS7003;47725;47.912;7.356;2023-04-25T08:59:14;0.00;0.00;
61804;PMS7003;47725;47.912;7.356;2023-04-25T09:03:14;0.00;0.00;
61804;PMS7003;47725;47.912;7.356;2023-04-25T09:07:14;0.00;0.00;
61804;PMS7003;47725;47.912;7.356;2023-04-25T09:11:14;0.00;0.00;
61804;PMS7003;47725;47.912;7.356;2023-04-25T09:15:14;0.00;0.00;
61804;PMS7003;47725;47.912;7.356;2023-04-25T09:19:21;2.86;0.00;
61804;PMS7003;47725;47.912;7.356;2023-04-25T09:23:14;2.86;0.00;
61804;PMS7003;47725;47.912;7.356;2023-04-25T09:27:18;0.00;0.00;
61804;PMS7003;47725;47.912;7.356;2023-04-25T09:31:23;0.00;0.00;
61804;PMS7003;47725;47.912;7.356;2023-04-25T09:35:23;0.00;0.00;
61804;PMS7003;47725;47.912;7.356;2023-04-25T09:39:14;0.00;0.00;
61804;PMS7003;47725;47.912;7.356;2023-04-25T09:43:24;0.00;0.00;
61804;PMS7003;47725;47.912;7.356;2023-04-25T09:47:15;0.00;0.00;
61804;PMS7003;47725;47.912;7.356;2023-04-25T09:51:14;0.00;0.00;
61804;PMS7003;47725;47.912;7.356;2023-04-25T09:55:14;0.00;0.00;
61804;PMS7003;47725;47.912;7.356;2023-04-25T09:59:14;0.00;0.00;
61804;PMS7003;47725;47.912;7.356;2023-04-25T10:03:14;0.00;0.00;
61804;PMS7003;47725;47.912;7.356;2023-04-25T10:07:14;2.92;0.00;
61804;PMS7003;47725;47.912;7.356;2023-04-25T10:11:14;2.92;0.00;
61804;PMS7003;47725;47.912;7.356;2023-04-25T10:15:14;2.92;0.00;
61804;PMS7003;47725;47.912;7.356;2023-04-25T10:19:14;0.00;0.00;
61804;PMS7003;47725;47.912;7.356;2023-04-25T10:23:14;0.00;0.00;
61804;PMS7003;47725;47.912;7.356;2023-04-25T10:27:14;0.98;0.00;
61804;PMS7003;47725;47.912;7.356;2023-04-25T10:31:15;0.98;0.00;
61804;PMS7003;47725;47.912;7.356;2023-04-25T10:35:15;0.98;0.00;
61804;PMS7003;47725;47.912;7.356;2023-04-25T10:39:14;0.00;0.00;
61804;PMS7003;47725;47.912;7.356;2023-04-25T10:47:14;0.00;0.00;
61804;PMS7003;47725;47.912;7.356;2023-04-25T10:51:18;0.00;0.00;
61804;PMS7003;47725;47.912;7.356;2023-04-25T10:55:14;0.00;0.00;
61804;PMS7003;47725;47.912;7.356;2023-04-25T10:59:17;0.00;0.00;
61804;PMS7003;47725;47.912;7.356;2023-04-25T11:03:16;0.00;0.00;
61804;PMS7003;47725;47.912;7.356;2023-04-25T11:07:34;0.00;0.00;
61804;PMS7003;47725;47.912;7.356;2023-04-25T11:11:14;0.00;0.00;
61804;PMS7003;47725;47.912;7.356;2023-04-25T11:15:14;0.00;0.00;
61804;PMS7003;47725;47.912;7.356;2023-04-25T11:19:14;0.00;0.00;
61804;PMS7003;47725;47.912;7.356;2023-04-25T11:23:15;0.00;0.00;
61804;PMS7003;47725;47.912;7.356;2023-04-25T11:27:14;0.00;0.00;
61804;PMS7003;47725;47.912;7.356;2023-04-25T11:31:14;0.00;0.00;
61804;PMS7003;47725;47.912;7.356;2023-04-25T11:35:14;0.00;0.00;
61804;PMS7003;47725;47.912;7.356;2023-04-25T11:39:14;0.00;0.00;
61804;PMS7003;47725;47.912;7.356;2023-04-25T11:43:14;0.00;0.00;
61804;PMS7003;47725;47.912;7.356;2023-04-25T11:47:14;0.99;0.99;
61804;PMS7003;47725;47.912;7.356;2023-04-25T11:51:14;0.99;0.99;
61804;PMS7003;47725;47.912;7.356;2023-04-25T11:55:18;0.99;0.99;
61804;PMS7003;47725;47.912;7.356;2023-04-25T11:59:14;0.00;0.00;
61804;PMS7003;47725;47.912;7.356;2023-04-25T12:03:14;0.00;0.00;
61804;PMS7003;47725;47.912;7.356;2023-04-25T12:07:14;0.00;0.00;
61804;PMS7003;47725;47.912;7.356;2023-04-25T12:11:20;0.00;0.00;
61804;PMS7003;47725;47.912;7.356;2023-04-25T12:15:18;0.00;0.00;
61804;PMS7003;47725;47.912;7.356;2023-04-25T12:19:14;0.97;0.00;
61804;PMS7003;47725;47.912;7.356;2023-04-25T12:23:14;0.97;0.00;
61804;PMS7003;47725;47.912;7.356;2023-04-25T12:27:15;0.00;0.00;
61804;PMS7003;47725;47.912;7.356;2023-04-25T12:31:14;0.00;0.00;
61804;PMS7003;47725;47.912;7.356;2023-04-25T12:35:14;0.00;0.00;
61804;PMS7003;47725;47.912;7.356;2023-04-25T12:39:21;0.98;0.00;
61804;PMS7003;47725;47.912;7.356;2023-04-25T12:43:14;0.98;0.00;
61804;PMS7003;47725;47.912;7.356;2023-04-25T12:47:14;0.00;0.00;
61804;PMS7003;47725;47.912;7.356;2023-04-25T12:51:14;0.00;0.00;
61804;PMS7003;47725;47.912;7.356;2023-04-25T12:55:14;0.00;0.00;
61804;PMS7003;47725;47.912;7.356;2023-04-25T12:59:14;0.00;0.00;
61804;PMS7003;47725;47.912;7.356;2023-04-25T13:03:14;0.00;0.00;
61804;PMS7003;47725;47.912;7.356;2023-04-25T13:07:14;0.00;0.00;
61804;PMS7003;47725;47.912;7.356;2023-04-25T13:11:14;0.00;0.00;
61804;PMS7003;47725;47.912;7.356;2023-04-25T13:15:14;0.00;0.00;
61804;PMS7003;47725;47.912;7.356;2023-04-25T13:19:14;0.00;0.00;
61804;PMS7003;47725;47.912;7.356;2023-04-25T13:23:14;0.00;0.00;
61804;PMS7003;47725;47.912;7.356;2023-04-25T13:27:14;0.00;0.00;
61804;PMS7003;47725;47.912;7.356;2023-04-25T13:31:14;0.00;0.00;
61804;PMS7003;47725;47.912;7.356;2023-04-25T13:35:14;0.00;0.00;
61804;PMS7003;47725;47.912;7.356;2023-04-25T13:39:14;0.00;0.00;
61804;PMS7003;47725;47.912;7.356;2023-04-25T13:43:14;0.00;0.00;
61804;PMS7003;47725;47.912;7.356;2023-04-25T13:47:14;0.00;0.00;
61804;PMS7003;47725;47.912;7.356;2023-04-25T13:51:15;0.00;0.00;
61804;PMS7003;47725;47.912;7.356;2023-04-25T13:55:14;0.00;0.00;
61804;PMS7003;47725;47.912;7.356;2023-04-25T13:59:14;0.00;0.00;
61804;PMS7003;47725;47.912;7.356;2023-04-25T14:03:14;0.00;0.00;
61804;PMS7003;47725;47.912;7.356;2023-04-25T14:07:14;1.97;1.97;
61804;PMS7003;47725;47.912;7.356;2023-04-25T14:11:14;1.97;1.97;
61804;PMS7003;47725;47.912;7.356;2023-04-25T14:15:14;1.97;1.97;
61804;PMS7003;47725;47.912;7.356;2023-04-25T14:19:14;1.95;0.00;
61804;PMS7003;47725;47.912;7.356;2023-04-25T14:23:14;1.95;0.00;
61804;PMS7003;47725;47.912;7.356;2023-04-25T14:27:18;0.00;0.00;
61804;PMS7003;47725;47.912;7.356;2023-04-25T14:31:18;0.00;0.00;
61804;PMS7003;47725;47.912;7.356;2023-04-25T14:35:18;0.00;0.00;
61804;PMS7003;47725;47.912;7.356;2023-04-25T14:39:18;0.00;0.00;
61804;PMS7003;47725;47.912;7.356;2023-04-25T14:43:18;0.00;0.00;
61804;PMS7003;47725;47.912;7.356;2023-04-25T14:47:18;1.92;1.92;
61804;PMS7003;47725;47.912;7.356;2023-04-25T14:51:18;1.92;1.92;
61804;PMS7003;47725;47.912;7.356;2023-04-25T14:55:18;1.92;1.92;
61804;PMS7003;47725;47.912;7.356;2023-04-25T14:59:18;0.96;0.00;
61804;PMS7003;47725;47.912;7.356;2023-04-25T15:03:18;0.96;0.00;
61804;PMS7003;47725;47.912;7.356;2023-04-25T15:07:18;0.00;0.00;
61804;PMS7003;47725;47.912;7.356;2023-04-25T15:11:18;0.00;0.00;
61804;PMS7003;47725;47.912;7.356;2023-04-25T15:15:19;0.00;0.00;
61804;PMS7003;47725;47.912;7.356;2023-04-25T15:19:18;0.00;0.00;
61804;PMS7003;47725;47.912;7.356;2023-04-25T15:23:18;0.00;0.00;
61804;PMS7003;47725;47.912;7.356;2023-04-25T15:27:18;0.00;0.00;
61804;PMS7003;47725;47.912;7.356;2023-04-25T15:31:18;0.00;0.00;
61804;PMS7003;47725;47.912;7.356;2023-04-25T15:35:18;0.00;0.00;
61804;PMS7003;47725;47.912;7.356;2023-04-25T15:39:18;0.95;0.95;
61804;PMS7003;47725;47.912;7.356;2023-04-25T15:43:18;0.95;0.95;
61804;PMS7003;47725;47.912;7.356;2023-04-25T15:47:18;0.00;0.00;
61804;PMS7003;47725;47.912;7.356;2023-04-25T15:51:18;0.00;0.00;
61804;PMS7003;47725;47.912;7.356;2023-04-25T15:55:19;0.00;0.00;
61804;PMS7003;47725;47.912;7.356;2023-04-25T15:59:18;0.95;0.95;
61804;PMS7003;47725;47.912;7.356;2023-04-25T16:03:18;0.95;0.95;
61804;PMS7003;47725;47.912;7.356;2023-04-25T16:07:18;0.94;0.00;
61804;PMS7003;47725;47.912;7.356;2023-04-25T16:11:18;0.94;0.00;
61804;PMS7003;47725;47.912;7.356;2023-04-25T16:15:18;0.94;0.00;
61804;PMS7003;47725;47.912;7.356;2023-04-25T16:19:18;1.88;0.00;
61804;PMS7003;47725;47.912;7.356;2023-04-25T16:23:18;1.88;0.00;
61804;PMS7003;47725;47.912;7.356;2023-04-25T16:27:18;0.93;0.93;
61804;PMS7003;47725;47.912;7.356;2023-04-25T16:31:18;0.93;0.93;
61804;PMS7003;47725;47.912;7.356;2023-04-25T16:35:19;0.93;0.93;
61804;PMS7003;47725;47.912;7.356;2023-04-25T16:39:18;0.91;0.91;
61804;PMS7003;47725;47.912;7.356;2023-04-25T16:43:18;0.91;0.91;
61804;PMS7003;47725;47.912;7.356;2023-04-25T16:47:18;0.91;0.91;
61804;PMS7003;47725;47.912;7.356;2023-04-25T16:51:18;0.91;0.91;
61804;PMS7003;47725;47.912;7.356;2023-04-25T16:55:18;0.91;0.91;
61804;PMS7003;47725;47.912;7.356;2023-04-25T16:59:18;0.00;0.00;
61804;PMS7003;47725;47.912;7.356;2023-04-25T17:03:18;0.00;0.00;
61804;PMS7003;47725;47.912;7.356;2023-04-25T17:07:18;0.00;0.00;
61804;PMS7003;47725;47.912;7.356;2023-04-25T17:11:18;0.00;0.00;
61804;PMS7003;47725;47.912;7.356;2023-04-25T17:15:19;0.00;0.00;
61804;PMS7003;47725;47.912;7.356;2023-04-25T17:19:18;0.90;0.00;
61804;PMS7003;47725;47.912;7.356;2023-04-25T17:23:18;0.90;0.00;
61804;PMS7003;47725;47.912;7.356;2023-04-25T17:27:18;0.00;0.00;
61804;PMS7003;47725;47.912;7.356;2023-04-25T17:31:19;0.00;0.00;
61804;PMS7003;47725;47.912;7.356;2023-04-25T17:35:18;0.00;0.00;
61804;PMS7003;47725;47.912;7.356;2023-04-25T17:39:18;0.91;0.00;
61804;PMS7003;47725;47.912;7.356;2023-04-25T17:43:18;0.91;0.00;
61804;PMS7003;47725;47.912;7.356;2023-04-25T17:47:18;0.00;0.00;
61804;PMS7003;47725;47.912;7.356;2023-04-25T17:51:18;0.00;0.00;
61804;PMS7003;47725;47.912;7.356;2023-04-25T17:55:18;0.00;0.00;
61804;PMS7003;47725;47.912;7.356;2023-04-25T17:59:18;0.91;0.91;
61804;PMS7003;47725;47.912;7.356;2023-04-25T18:03:18;0.91;0.91;
61804;PMS7003;47725;47.912;7.356;2023-04-25T18:07:18;0.00;0.00;
61804;PMS7003;47725;47.912;7.356;2023-04-25T18:11:18;0.00;0.00;
61804;PMS7003;47725;47.912;7.356;2023-04-25T18:15:18;0.00;0.00;
61804;PMS7003;47725;47.912;7.356;2023-04-25T18:19:18;0.00;0.00;
61804;PMS7003;47725;47.912;7.356;2023-04-25T18:23:18;0.00;0.00;
61804;PMS7003;47725;47.912;7.356;2023-04-25T18:27:18;1.81;1.81;
61804;PMS7003;47725;47.912;7.356;2023-04-25T18:31:18;1.81;1.81;
61804;PMS7003;47725;47.912;7.356;2023-04-25T18:35:19;1.81;1.81;
61804;PMS7003;47725;47.912;7.356;2023-04-25T18:39:18;6.34;5.44;
61804;PMS7003;47725;47.912;7.356;2023-04-25T18:43:18;6.34;5.44;
61804;PMS7003;47725;47.912;7.356;2023-04-25T18:47:18;3.60;1.80;
61804;PMS7003;47725;47.912;7.356;2023-04-25T18:51:21;3.60;1.80;
61804;PMS7003;47725;47.912;7.356;2023-04-25T18:55:18;3.60;1.80;
61804;PMS7003;47725;47.912;7.356;2023-04-25T18:59:18;2.70;0.90;
61804;PMS7003;47725;47.912;7.356;2023-04-25T19:03:18;2.70;0.90;
61804;PMS7003;47725;47.912;7.356;2023-04-25T19:07:18;6.26;2.68;
61804;PMS7003;47725;47.912;7.356;2023-04-25T19:11:18;6.26;2.68;
61804;PMS7003;47725;47.912;7.356;2023-04-25T19:15:18;6.26;2.68;
61804;PMS7003;47725;47.912;7.356;2023-04-25T19:19:18;8.06;8.06;
61804;PMS7003;47725;47.912;7.356;2023-04-25T19:23:18;8.06;8.06;
61804;PMS7003;47725;47.912;7.356;2023-04-25T19:27:18;12.44;10.66;
61804;PMS7003;47725;47.912;7.356;2023-04-25T19:31:18;12.44;10.66;
61804;PMS7003;47725;47.912;7.356;2023-04-25T19:35:18;12.44;10.66;
61804;PMS7003;47725;47.912;7.356;2023-04-25T19:39:18;6.21;5.32;
61804;PMS7003;47725;47.912;7.356;2023-04-25T19:43:18;6.21;5.32;
61804;PMS7003;47725;47.912;7.356;2023-04-25T19:47:18;5.31;3.54;
61804;PMS7003;47725;47.912;7.356;2023-04-25T19:51:18;5.31;3.54;
61804;PMS7003;47725;47.912;7.356;2023-04-25T19:55:18;5.31;3.54;
61804;PMS7003;47725;47.912;7.356;2023-04-25T19:59:18;2.64;2.64;
61804;PMS7003;47725;47.912;7.356;2023-04-25T20:03:18;2.64;2.64;
61804;PMS7003;47725;47.912;7.356;2023-04-25T20:07:18;6.17;5.29;
61804;PMS7003;47725;47.912;7.356;2023-04-25T20:11:18;6.17;5.29;
61804;PMS7003;47725;47.912;7.356;2023-04-25T20:15:18;6.17;5.29;
61804;PMS7003;47725;47.912;7.356;2023-04-25T20:19:18;0.88;0.88;
61804;PMS7003;47725;47.912;7.356;2023-04-25T20:23:18;0.88;0.88;
61804;PMS7003;47725;47.912;7.356;2023-04-25T20:27:18;1.75;1.75;
61804;PMS7003;47725;47.912;7.356;2023-04-25T20:31:18;1.75;1.75;
61804;PMS7003;47725;47.912;7.356;2023-04-25T20:35:18;1.75;1.75;
61804;PMS7003;47725;47.912;7.356;2023-04-25T20:39:18;4.38;2.63;
61804;PMS7003;47725;47.912;7.356;2023-04-25T20:43:18;4.38;2.63;
61804;PMS7003;47725;47.912;7.356;2023-04-25T20:47:18;5.23;2.62;
61804;PMS7003;47725;47.912;7.356;2023-04-25T20:51:18;5.23;2.62;
61804;PMS7003;47725;47.912;7.356;2023-04-25T20:55:18;5.23;2.62;
61804;PMS7003;47725;47.912;7.356;2023-04-25T20:59:18;5.22;3.48;
61804;PMS7003;47725;47.912;7.356;2023-04-25T21:03:18;5.22;3.48;
61804;PMS7003;47725;47.912;7.356;2023-04-25T21:07:18;2.56;2.56;
61804;PMS7003;47725;47.912;7.356;2023-04-25T21:11:18;2.56;2.56;
61804;PMS7003;47725;47.912;7.356;2023-04-25T21:15:18;2.56;2.56;
61804;PMS7003;47725;47.912;7.356;2023-04-25T21:19:18;2.56;2.56;
61804;PMS7003;47725;47.912;7.356;2023-04-25T21:23:18;2.56;2.56;
61804;PMS7003;47725;47.912;7.356;2023-04-25T21:27:18;5.09;3.39;
61804;PMS7003;47725;47.912;7.356;2023-04-25T21:31:18;5.09;3.39;
61804;PMS7003;47725;47.912;7.356;2023-04-25T21:35:19;5.09;3.39;
61804;PMS7003;47725;47.912;7.356;2023-04-25T21:39:18;4.23;4.23;
61804;PMS7003;47725;47.912;7.356;2023-04-25T21:43:18;4.23;4.23;
61804;PMS7003;47725;47.912;7.356;2023-04-25T21:47:18;5.08;5.08;
61804;PMS7003;47725;47.912;7.356;2023-04-25T21:51:18;5.08;5.08;
61804;PMS7003;47725;47.912;7.356;2023-04-25T21:55:18;5.08;5.08;
61804;PMS7003;47725;47.912;7.356;2023-04-25T21:59:18;5.92;4.23;
61804;PMS7003;47725;47.912;7.356;2023-04-25T22:03:18;5.92;4.23;
61804;PMS7003;47725;47.912;7.356;2023-04-25T22:07:18;6.74;5.06;
61804;PMS7003;47725;47.912;7.356;2023-04-25T22:11:18;6.74;5.06;
61804;PMS7003;47725;47.912;7.356;2023-04-25T22:15:18;6.74;5.06;
61804;PMS7003;47725;47.912;7.356;2023-04-25T22:19:18;6.72;4.20;
61804;PMS7003;47725;47.912;7.356;2023-04-25T22:23:18;6.72;4.20;
61804;PMS7003;47725;47.912;7.356;2023-04-25T22:27:18;5.84;5.01;
61804;PMS7003;47725;47.912;7.356;2023-04-25T22:31:18;5.84;5.01;
61804;PMS7003;47725;47.912;7.356;2023-04-25T22:35:18;5.84;5.01;
61804;PMS7003;47725;47.912;7.356;2023-04-25T22:39:18;2.51;2.51;
61804;PMS7003;47725;47.912;7.356;2023-04-25T22:43:18;2.51;2.51;
61804;PMS7003;47725;47.912;7.356;2023-04-25T22:47:18;3.33;3.33;
61804;PMS7003;47725;47.912;7.356;2023-04-25T22:51:18;3.33;3.33;
61804;PMS7003;47725;47.912;7.356;2023-04-25T22:55:18;3.33;3.33;
61804;PMS7003;47725;47.912;7.356;2023-04-25T22:59:18;3.33;3.33;
61804;PMS7003;47725;47.912;7.356;2023-04-25T23:03:18;3.33;3.33;
61804;PMS7003;47725;47.912;7.356;2023-04-25T23:07:18;6.64;5.81;
61804;PMS7003;47725;47.912;7.356;2023-04-25T23:11:18;6.64;5.81;
61804;PMS7003;47725;47.912;7.356;2023-04-25T23:15:18;6.64;5.81;
61804;PMS7003;47725;47.912;7.356;2023-04-25T23:19:18;9.96;6.64;
61804;PMS7003;47725;47.912;7.356;2023-04-25T23:23:18;9.96;6.64;
61804;PMS7003;47725;47.912;7.356;2023-04-25T23:27:18;5.80;2.48;
61804;PMS7003;47725;47.912;7.356;2023-04-25T23:31:18;5.80;2.48;
61804;PMS7003;47725;47.912;7.356;2023-04-25T23:35:18;5.80;2.48;
61804;PMS7003;47725;47.912;7.356;2023-04-25T23:39:18;1.65;1.65;
61804;PMS7003;47725;47.912;7.356;2023-04-25T23:43:18;1.65;1.65;
61804;PMS7003;47725;47.912;7.356;2023-04-25T23:47:18;1.65;1.65;
61804;PMS7003;47725;47.912;7.356;2023-04-25T23:51:18;1.65;1.65;
61804;PMS7003;47725;47.912;7.356;2023-04-25T23:55:18;1.65;1.65;
61804;PMS7003;47725;47.912;7.356;2023-04-25T23:59:18;0.83;0.83;
